createdAt,value
2018-09-03T06:15:39.892Z,1328.00
2018-09-03T06:18:43.037Z,1492.00
2018-09-03T06:19:43.163Z,1600.00
2018-09-03T06:20:42.956Z,1712.00
2018-09-03T06:21:42.927Z,1864.00
2018-09-03T06:22:42.966Z,2016.00
2018-09-03T06:23:42.977Z,2140.00
2018-09-03T06:24:42.975Z,2228.00
2018-09-03T06:25:41.803Z,2312.00
2018-09-03T06:26:42.013Z,2384.00
2018-09-03T06:27:42.921Z,2420.00
2018-09-03T06:28:41.315Z,2424.00
2018-09-03T06:29:41.655Z,2356.00
2018-09-03T06:30:40.807Z,2224.00
2018-09-03T06:31:40.841Z,2068.00
2018-09-03T06:32:40.723Z,1896.00
2018-09-03T06:33:40.809Z,1712.00
2018-09-03T06:34:40.662Z,1548.00
2018-09-03T06:35:40.637Z,1416.00
2018-09-03T06:36:40.616Z,1304.00
2018-09-03T06:37:55.526Z,1224.00
2018-09-03T06:40:00.457Z,1148.00
2018-09-03T06:40:44.219Z,1128.00
2018-09-03T06:44:37.574Z,1052.00
2018-09-03T06:47:08.204Z,1072.00
2018-09-03T06:48:08.589Z,1052.00
2018-09-03T06:49:08.261Z,1048.00
2018-09-03T06:50:08.227Z,1060.00
2018-09-03T06:51:08.169Z,1072.00
2018-09-03T06:52:07.139Z,1140.00
2018-09-03T06:53:07.571Z,1232.00
2018-09-03T06:54:07.052Z,1280.00
2018-09-03T06:55:08.101Z,1296.00
2018-09-03T06:56:08.032Z,1272.00
2018-09-03T06:57:06.449Z,1256.00
2018-09-03T06:58:08.019Z,1228.00
2018-09-03T06:59:08.486Z,1176.00
2018-09-03T07:00:07.606Z,1140.00
2018-09-03T07:01:06.640Z,1160.00
2018-09-03T07:02:07.937Z,1236.00
2018-09-03T07:03:07.333Z,1304.00
2018-09-03T07:04:07.963Z,1296.00
2018-09-03T07:05:07.502Z,1252.00
2018-09-03T07:06:06.819Z,1268.00
2018-09-03T07:07:07.188Z,1376.00
2018-09-03T07:08:07.754Z,1508.00
2018-09-03T07:09:06.318Z,1604.00
2018-09-03T07:10:05.788Z,1804.00
2018-09-03T07:11:05.593Z,2052.00
2018-09-03T07:12:05.587Z,2184.00
2018-09-03T07:13:05.682Z,2280.00
2018-09-03T07:14:05.520Z,2348.00
2018-09-03T07:15:05.502Z,2412.00
2018-09-03T07:16:05.564Z,2400.00
2018-09-03T07:17:05.463Z,2344.00
2018-09-03T07:18:05.562Z,2324.00
2018-09-03T07:19:05.402Z,2324.00
2018-09-03T07:20:05.401Z,2272.00
2018-09-03T07:21:05.346Z,2128.00
2018-09-03T07:22:05.312Z,2020.00
2018-09-03T07:23:05.280Z,2068.00
2018-09-03T07:24:05.385Z,2176.00
2018-09-03T07:25:05.408Z,2236.00
2018-09-03T07:26:05.239Z,2232.00
2018-09-03T07:27:05.183Z,2360.00
2018-09-03T07:28:05.160Z,2596.00
2018-09-03T07:29:05.283Z,2820.00
2018-09-03T07:30:05.108Z,2980.00
2018-09-03T07:31:05.239Z,3068.00
2018-09-03T07:32:05.061Z,2996.00
2018-09-03T07:33:05.240Z,2860.00
2018-09-03T07:34:05.072Z,2744.00
2018-09-03T07:35:05.122Z,2848.00
2018-09-03T07:36:05.083Z,3284.00
2018-09-03T07:37:04.986Z,3676.00
2018-09-03T07:38:05.079Z,3900.00
2018-09-03T07:39:05.015Z,4036.00
2018-09-03T07:40:04.852Z,4160.00
2018-09-03T07:41:04.909Z,4196.00
2018-09-03T07:42:04.859Z,4072.00
2018-09-03T07:43:04.874Z,3848.00
2018-09-03T07:44:04.804Z,4024.00
2018-09-03T07:45:04.733Z,4396.00
2018-09-03T07:46:04.730Z,4460.00
2018-09-03T07:47:04.742Z,4044.00
2018-09-03T07:48:04.648Z,3456.00
2018-09-03T07:49:04.623Z,3116.00
2018-09-03T07:50:04.613Z,3024.00
2018-09-03T07:51:04.697Z,3048.00
2018-09-03T07:52:04.583Z,3116.00
2018-09-03T07:53:04.537Z,3160.00
2018-09-03T07:54:04.492Z,3296.00
2018-09-03T07:55:04.517Z,3392.00
2018-09-03T07:56:04.581Z,3232.00
2018-09-03T07:57:04.441Z,3196.00
2018-09-03T07:58:04.473Z,3732.00
2018-09-03T07:59:04.457Z,4384.00
2018-09-03T08:00:04.362Z,4392.00
2018-09-03T08:01:04.505Z,3908.00
2018-09-03T08:02:04.366Z,3820.00
2018-09-03T08:03:04.275Z,3852.00
2018-09-03T08:04:04.263Z,3532.00
2018-09-03T08:05:04.298Z,3232.00
2018-09-03T08:06:04.370Z,3012.00
2018-09-03T08:07:04.226Z,2820.00
2018-09-03T08:08:04.322Z,2744.00
2018-09-03T08:09:04.211Z,2788.00
2018-09-03T08:10:04.148Z,2724.00
2018-09-03T08:11:04.149Z,2668.00
2018-09-03T08:12:04.128Z,2664.00
2018-09-03T08:13:04.183Z,2704.00
2018-09-03T08:14:04.013Z,2640.00
2018-09-03T08:15:04.108Z,2368.00
2018-09-03T08:16:03.958Z,2132.00
2018-09-03T08:17:03.945Z,2012.00
2018-09-03T08:18:03.925Z,2000.00
2018-09-03T08:19:03.867Z,2072.00
2018-09-03T08:20:03.944Z,2152.00
2018-09-03T08:21:03.935Z,2204.00
2018-09-03T08:22:03.794Z,2232.00
2018-09-03T08:25:09.297Z,2044.00
2018-09-03T08:26:10.299Z,1904.00
2018-09-03T08:28:20.338Z,2040.00
2018-09-03T08:29:19.032Z,2240.00
2018-09-03T08:30:19.768Z,2448.00
2018-09-03T08:31:18.525Z,2568.00
2018-09-03T08:32:19.501Z,2788.00
2018-09-03T08:33:21.300Z,3176.00
2018-09-03T08:34:19.467Z,3740.00
2018-09-03T08:35:18.642Z,4156.00
2018-09-03T08:36:19.109Z,4288.00
2018-09-03T08:37:18.628Z,4136.00
2018-09-03T08:38:18.826Z,3816.00
2018-09-03T08:39:18.634Z,3476.00
2018-09-03T08:40:17.934Z,3308.00
2018-09-03T08:42:50.059Z,3072.00
2018-09-03T08:43:50.401Z,3164.00
2018-09-03T08:45:50.024Z,3292.00
2018-09-03T08:46:48.850Z,3124.00
2018-09-03T08:48:50.650Z,2800.00
2018-09-03T08:49:50.559Z,3032.00
2018-09-03T08:51:51.665Z,3284.00
2018-09-03T08:52:50.556Z,3072.00
2018-09-03T08:53:51.681Z,2896.00
2018-09-03T08:54:51.015Z,2712.00
2018-09-03T08:56:07.971Z,2552.00
2018-09-03T08:57:57.709Z,2376.00
2018-09-03T09:00:50.966Z,2892.00
2018-09-03T09:03:54.932Z,3428.00
2018-09-03T09:04:53.804Z,3220.00
2018-09-03T09:06:52.578Z,2780.00
2018-09-03T09:07:52.234Z,2628.00
2018-09-03T09:08:51.708Z,2508.00
2018-09-03T09:09:51.729Z,2416.00
2018-09-03T09:10:52.603Z,2344.00
2018-09-03T09:11:51.720Z,2280.00
2018-09-03T09:12:52.607Z,2328.00
2018-09-03T09:13:51.574Z,2528.00
2018-09-03T09:14:51.454Z,2892.00
2018-09-03T09:15:51.329Z,3172.00
2018-09-03T09:16:52.650Z,3492.00
2018-09-03T09:17:52.683Z,3832.00
2018-09-03T09:18:52.508Z,4036.00
2018-09-03T09:20:05.627Z,3804.00
2018-09-03T09:20:51.422Z,3616.00
2018-09-03T09:21:51.600Z,3748.00
2018-09-03T09:22:51.401Z,3880.00
2018-09-03T09:23:52.154Z,3968.00
2018-09-03T09:24:51.870Z,4360.00
2018-09-03T09:26:06.306Z,4856.00
2018-09-03T09:27:52.003Z,5192.00
2018-09-03T09:28:50.599Z,4972.00
2018-09-03T09:29:51.172Z,5012.00
2018-09-03T09:30:50.090Z,5236.00
2018-09-03T09:31:51.182Z,5348.00
2018-09-03T09:32:51.239Z,5448.00
2018-09-03T09:33:51.151Z,5540.00
2018-09-03T09:34:49.980Z,5492.00
2018-09-03T09:35:51.177Z,5420.00
2018-09-03T09:36:50.415Z,5472.00
2018-09-03T09:37:50.438Z,5552.00
2018-09-03T09:38:51.122Z,5648.00
2018-09-03T09:39:49.691Z,5756.00
2018-09-03T09:40:49.950Z,5940.00
2018-09-03T09:41:51.672Z,5992.00
2018-09-03T09:42:49.633Z,5772.00
2018-09-03T09:43:48.850Z,5324.00
2018-09-03T09:44:48.737Z,4836.00
2018-09-03T09:45:48.872Z,4396.00
2018-09-03T09:46:48.680Z,4108.00
2018-09-03T09:47:48.749Z,3896.00
2018-09-03T09:48:48.736Z,3620.00
2018-09-03T09:49:48.613Z,3372.00
2018-09-03T09:50:48.785Z,3388.00
2018-09-03T09:51:48.580Z,3576.00
2018-09-03T09:52:48.538Z,3868.00
2018-09-03T09:54:01.568Z,4292.00
2018-09-03T09:56:03.029Z,5568.00
2018-09-03T09:57:04.465Z,5268.00
2018-09-03T09:58:03.339Z,4828.00
2018-09-03T09:59:03.894Z,4628.00
2018-09-03T10:00:03.305Z,4488.00
2018-09-03T10:01:03.234Z,4400.00
2018-09-03T10:02:03.774Z,4392.00
2018-09-03T10:03:03.208Z,4388.00
2018-09-03T10:04:04.416Z,4344.00
2018-09-03T10:05:04.317Z,4432.00
2018-09-03T10:06:03.297Z,4696.00
2018-09-03T10:07:02.590Z,4996.00
2018-09-03T10:08:02.186Z,5372.00
2018-09-03T10:09:02.066Z,5704.00
2018-09-03T10:10:02.203Z,6084.00
2018-09-03T10:11:02.086Z,6424.00
2018-09-03T10:12:02.067Z,6472.00
2018-09-03T10:13:02.068Z,6540.00
2018-09-03T10:14:02.079Z,6484.00
2018-09-03T10:15:02.033Z,6348.00
2018-09-03T10:16:02.055Z,6284.00
2018-09-03T10:17:02.192Z,6320.00
2018-09-03T10:18:02.181Z,6244.00
2018-09-03T10:19:01.895Z,5932.00
2018-09-03T10:20:01.831Z,5876.00
2018-09-03T10:21:01.877Z,6060.00
2018-09-03T10:22:01.897Z,6308.00
2018-09-03T10:23:01.875Z,6468.00
2018-09-03T10:24:01.795Z,6664.00
2018-09-03T10:25:01.744Z,6852.00
2018-09-03T10:26:01.658Z,7028.00
2018-09-03T10:27:01.657Z,7288.00
2018-09-03T10:28:01.651Z,7508.00
2018-09-03T10:29:01.674Z,7848.00
2018-09-03T10:30:01.570Z,8380.00
2018-09-03T10:31:01.565Z,9012.00
2018-09-03T10:32:01.562Z,9728.00
2018-09-03T10:33:01.494Z,9904.00
2018-09-03T10:34:01.529Z,10080.00
2018-09-03T10:35:01.437Z,10420.00
2018-09-03T10:36:01.504Z,10540.00
2018-09-03T10:37:01.394Z,10408.00
2018-09-03T10:38:01.477Z,9808.00
2018-09-03T10:39:01.402Z,9168.00
2018-09-03T10:40:01.376Z,8980.00
2018-09-03T10:41:01.447Z,9228.00
2018-09-03T10:42:01.480Z,9908.00
2018-09-03T10:43:01.252Z,10040.00
2018-09-03T10:44:01.242Z,10684.00
2018-09-03T10:45:01.258Z,10668.00
2018-09-03T10:46:01.261Z,10700.00
2018-09-03T10:47:01.269Z,10304.00
2018-09-03T10:48:01.375Z,10332.00
2018-09-03T10:49:01.240Z,10408.00
2018-09-03T10:50:01.090Z,10120.00
2018-09-03T10:51:01.094Z,9708.00
2018-09-03T10:52:01.139Z,9488.00
2018-09-03T10:53:01.034Z,9664.00
2018-09-03T10:54:01.009Z,10160.00
2018-09-03T10:55:01.001Z,10716.00
2018-09-03T10:56:01.076Z,10888.00
2018-09-03T10:57:00.968Z,10816.00
2018-09-03T10:58:01.054Z,10884.00
2018-09-03T10:59:00.929Z,10880.00
2018-09-03T11:00:03.449Z,10828.00
2018-09-03T11:01:00.940Z,10908.00
2018-09-03T11:02:00.893Z,10816.00
2018-09-03T11:03:00.805Z,10224.00
2018-09-03T11:04:00.970Z,9664.00
2018-09-03T11:05:00.775Z,9188.00
2018-09-03T11:06:00.816Z,8940.00
2018-09-03T11:07:00.722Z,8824.00
2018-09-03T11:08:00.693Z,9028.00
2018-09-03T11:09:00.701Z,9316.00
2018-09-03T11:10:00.665Z,9172.00
2018-09-03T11:11:00.632Z,8588.00
2018-09-03T11:12:00.638Z,8116.00
2018-09-03T11:13:00.680Z,7972.00
2018-09-03T11:14:00.603Z,8140.00
2018-09-03T11:15:00.818Z,8236.00
2018-09-03T11:16:00.543Z,8360.00
2018-09-03T11:17:00.520Z,8684.00
2018-09-03T11:18:00.502Z,9020.00
2018-09-03T11:19:00.468Z,9236.00
2018-09-03T11:20:00.634Z,9180.00
2018-09-03T11:21:00.501Z,8796.00
2018-09-03T11:22:00.458Z,8764.00
2018-09-03T11:23:00.473Z,9684.00
2018-09-03T11:24:00.413Z,9876.00
2018-09-03T11:25:00.567Z,10408.00
2018-09-03T11:26:00.481Z,10968.00
2018-09-03T11:27:17.937Z,10488.00
2018-09-03T11:29:11.107Z,10224.00
2018-09-03T11:30:10.615Z,10752.00
2018-09-03T11:31:10.496Z,10724.00
2018-09-03T11:32:10.599Z,10688.00
2018-09-03T11:33:10.536Z,10740.00
2018-09-03T11:34:09.896Z,10792.00
2018-09-03T11:35:10.873Z,10832.00
2018-09-03T11:36:10.023Z,10720.00
2018-09-03T11:37:10.115Z,10976.00
2018-09-03T11:38:08.860Z,11220.00
2018-09-03T11:39:08.845Z,10416.00
2018-09-03T11:40:08.780Z,9944.00
2018-09-03T11:41:08.756Z,9492.00
2018-09-03T11:42:08.715Z,9940.00
2018-09-03T11:43:08.684Z,10416.00
2018-09-03T11:44:08.684Z,10152.00
2018-09-03T11:45:08.666Z,9772.00
2018-09-03T11:46:08.774Z,9636.00
2018-09-03T11:47:08.738Z,9456.00
2018-09-03T11:48:08.648Z,8944.00
2018-09-03T11:49:08.575Z,9272.00
2018-09-03T11:50:08.599Z,9912.00
2018-09-03T11:51:08.567Z,9820.00
2018-09-03T11:52:08.514Z,9908.00
2018-09-03T11:53:08.486Z,10032.00
2018-09-03T11:54:08.576Z,9772.00
2018-09-03T11:55:08.434Z,9616.00
2018-09-03T11:56:08.416Z,9276.00
2018-09-03T11:57:08.404Z,8964.00
2018-09-03T11:58:08.388Z,9072.00
2018-09-03T11:59:08.446Z,9324.00
2018-09-03T12:00:08.352Z,9508.00
2018-09-03T12:01:08.398Z,9680.00
2018-09-03T12:02:08.331Z,10112.00
2018-09-03T12:03:08.424Z,10276.00
2018-09-03T12:04:08.248Z,10432.00
2018-09-03T12:05:08.408Z,10396.00
2018-09-03T12:06:08.327Z,10348.00
2018-09-03T12:07:08.365Z,10664.00
2018-09-03T12:08:08.334Z,10588.00
2018-09-03T12:09:08.178Z,10340.00
2018-09-03T12:10:08.112Z,11144.00
2018-09-03T12:11:10.063Z,12232.00
2018-09-03T12:12:08.149Z,12400.00
2018-09-03T12:13:08.556Z,12136.00
2018-09-03T12:14:08.099Z,12364.00
2018-09-03T12:15:08.336Z,12424.00
2018-09-03T12:16:08.015Z,11916.00
2018-09-03T12:17:07.969Z,11304.00
2018-09-03T12:18:07.949Z,10840.00
2018-09-03T12:19:27.655Z,10676.00
2018-09-03T12:21:11.645Z,11300.00
2018-09-03T12:24:54.052Z,10408.00
2018-09-03T12:25:54.477Z,9780.00
2018-09-03T12:26:55.613Z,9368.00
2018-09-03T12:27:54.471Z,8992.00
2018-09-03T12:28:55.478Z,9284.00
2018-09-03T12:29:55.093Z,9716.00
2018-09-03T12:31:09.365Z,10024.00
2018-09-03T12:32:59.010Z,9800.00
2018-09-03T12:33:58.987Z,9204.00
2018-09-03T12:36:00.501Z,8788.00
2018-09-03T12:36:59.537Z,8628.00
2018-09-03T12:39:06.110Z,8356.00
2018-09-03T12:40:06.156Z,8332.00
2018-09-03T12:41:33.135Z,7972.00
2018-09-03T12:43:13.061Z,7444.00
2018-09-03T12:44:11.791Z,7220.00
2018-09-03T12:46:10.919Z,5960.00
2018-09-03T12:50:12.495Z,4736.00
2018-09-03T12:53:18.678Z,4204.00
2018-09-03T12:54:17.579Z,4148.00
2018-09-03T12:55:17.928Z,4224.00
2018-09-03T12:56:18.045Z,4392.00
2018-09-03T12:57:17.479Z,4636.00
2018-09-03T12:58:17.488Z,4956.00
2018-09-03T12:59:17.506Z,5116.00
2018-09-03T13:00:19.393Z,5056.00
2018-09-03T13:01:17.913Z,5020.00
2018-09-03T13:02:17.892Z,5268.00
2018-09-03T13:03:20.163Z,5688.00
2018-09-03T13:04:16.761Z,6184.00
2018-09-03T13:05:16.405Z,6700.00
2018-09-03T13:06:16.469Z,7296.00
2018-09-03T13:07:16.523Z,7852.00
2018-09-03T13:08:16.235Z,8292.00
2018-09-03T13:09:16.270Z,8480.00
2018-09-03T13:10:16.248Z,8764.00
2018-09-03T13:11:16.383Z,9056.00
2018-09-03T13:12:16.309Z,9348.00
2018-09-03T13:13:16.230Z,9628.00
2018-09-03T13:14:16.098Z,10676.00
2018-09-03T13:15:16.291Z,11196.00
2018-09-03T13:16:16.134Z,11368.00
2018-09-03T13:17:27.954Z,12180.00
2018-09-03T13:19:18.198Z,12960.00
2018-09-03T13:20:16.443Z,12748.00
2018-09-03T13:22:19.529Z,11380.00
2018-09-03T13:23:19.227Z,11020.00
2018-09-03T13:25:25.316Z,9936.00
2018-09-03T13:27:48.252Z,8868.00
2018-09-03T13:28:46.930Z,8836.00
2018-09-03T13:30:54.204Z,10016.00
2018-09-03T13:33:35.041Z,10488.00
2018-09-03T13:34:34.836Z,10132.00
2018-09-03T13:36:38.090Z,9788.00
2018-09-03T13:37:35.207Z,9632.00
2018-09-03T13:39:39.681Z,9664.00
2018-09-03T13:42:46.690Z,12040.00
2018-09-03T13:43:46.416Z,14472.00
2018-09-03T13:45:12.980Z,15604.00
2018-09-03T13:46:47.206Z,14388.00
2018-09-03T13:47:47.943Z,12852.00
2018-09-03T13:49:50.633Z,10060.00
2018-09-03T13:50:50.547Z,9328.00
2018-09-03T13:52:57.475Z,8544.00
2018-09-03T13:53:57.869Z,8548.00
2018-09-03T13:56:00.025Z,8212.00
2018-09-03T13:56:59.500Z,7988.00
2018-09-03T13:59:04.022Z,7296.00
2018-09-03T14:00:02.225Z,6960.00
2018-09-03T14:01:03.125Z,6680.00
2018-09-03T14:02:02.734Z,6588.00
2018-09-03T14:03:02.209Z,7008.00
2018-09-03T14:04:05.447Z,7768.00
2018-09-03T14:05:03.781Z,7992.00
2018-09-03T14:06:02.737Z,7888.00
2018-09-03T14:07:02.723Z,7692.00
2018-09-03T14:08:02.461Z,7236.00
2018-09-03T14:09:01.373Z,6592.00
2018-09-03T14:10:02.986Z,6012.00
2018-09-03T14:11:01.868Z,5624.00
2018-09-03T14:12:01.829Z,5352.00
2018-09-03T14:13:02.224Z,5144.00
2018-09-03T14:14:01.283Z,4904.00
2018-09-03T14:15:04.855Z,4768.00
2018-09-03T14:16:03.267Z,4696.00
2018-09-03T14:17:02.885Z,4804.00
2018-09-03T14:18:01.124Z,5084.00
2018-09-03T14:19:00.938Z,5392.00
2018-09-03T14:20:00.751Z,5708.00
2018-09-03T14:21:00.699Z,5964.00
2018-09-03T14:22:00.757Z,6216.00
2018-09-03T14:23:00.682Z,6608.00
2018-09-03T14:24:00.639Z,7116.00
2018-09-03T14:25:00.668Z,7540.00
2018-09-03T14:26:00.545Z,7892.00
2018-09-03T14:27:00.864Z,8168.00
2018-09-03T14:28:00.492Z,8552.00
2018-09-03T14:29:00.525Z,9036.00
2018-09-03T14:30:00.462Z,8732.00
2018-09-03T14:31:00.521Z,7952.00
2018-09-03T14:32:00.411Z,7580.00
2018-09-03T14:33:00.386Z,7444.00
2018-09-03T14:34:00.388Z,7288.00
2018-09-03T14:35:00.385Z,7112.00
2018-09-03T14:36:00.324Z,7004.00
2018-09-03T14:37:00.529Z,6836.00
2018-09-03T14:38:00.402Z,6540.00
2018-09-03T14:39:00.336Z,6032.00
2018-09-03T14:40:24.931Z,5436.00
2018-09-03T14:42:11.957Z,4388.00
2018-09-03T14:43:12.488Z,3976.00
2018-09-03T14:45:22.539Z,3640.00
2018-09-03T14:46:06.674Z,3588.00
2018-09-03T14:48:12.262Z,3560.00
2018-09-03T14:49:11.404Z,3648.00
2018-09-03T14:51:12.687Z,4048.00
2018-09-03T14:52:09.235Z,4244.00
2018-09-03T14:53:09.423Z,4432.00
2018-09-03T14:54:08.734Z,4548.00
2018-09-03T14:55:09.958Z,4560.00
2018-09-03T14:56:09.223Z,4504.00
2018-09-03T14:57:09.473Z,4400.00
2018-09-03T14:58:08.908Z,4260.00
2018-09-03T14:59:08.582Z,4104.00
2018-09-03T15:00:08.547Z,4008.00
2018-09-03T15:01:08.023Z,3976.00
2018-09-03T15:02:09.927Z,4032.00
2018-09-03T15:03:10.165Z,4148.00
2018-09-03T15:05:48.222Z,4412.00
2018-09-03T15:08:11.689Z,4448.00
2018-09-03T15:09:10.247Z,4484.00
2018-09-03T15:11:15.887Z,4152.00
2018-09-03T15:12:15.935Z,3808.00
2018-09-03T15:14:10.529Z,3280.00
2018-09-03T15:15:11.826Z,3140.00
2018-09-03T15:16:11.400Z,2988.00
2018-09-03T15:17:10.325Z,2816.00
2018-09-03T15:18:10.849Z,2548.00
2018-09-03T15:19:09.763Z,2248.00
2018-09-03T15:20:10.657Z,2000.00
2018-09-03T15:21:10.658Z,1868.00
2018-09-03T15:22:10.649Z,1824.00
2018-09-03T15:23:10.604Z,1824.00
2018-09-03T15:24:10.207Z,1900.00
2018-09-03T15:25:10.113Z,2084.00
2018-09-03T15:26:09.937Z,2416.00
2018-09-03T15:27:09.385Z,2860.00
2018-09-03T15:28:10.052Z,3296.00
2018-09-03T15:29:10.136Z,3616.00
2018-09-03T15:30:09.943Z,3860.00
2018-09-03T15:31:26.887Z,3996.00
2018-09-03T15:32:10.539Z,4032.00
2018-09-03T15:33:08.823Z,4084.00
2018-09-03T15:34:08.524Z,4160.00
2018-09-03T15:35:08.486Z,4164.00
2018-09-03T15:36:08.328Z,4064.00
2018-09-03T15:37:08.405Z,3884.00
2018-09-03T15:38:08.314Z,3700.00
2018-09-03T15:39:08.265Z,3576.00
2018-09-03T15:40:08.470Z,3504.00
2018-09-03T15:41:08.276Z,3392.00
2018-09-03T15:42:08.260Z,3184.00
2018-09-03T15:43:08.222Z,2928.00
2018-09-03T15:44:08.240Z,2704.00
2018-09-03T15:45:08.373Z,2568.00
2018-09-03T15:46:08.165Z,2528.00
2018-09-03T15:47:08.309Z,2540.00
2018-09-03T15:48:08.251Z,2568.00
2018-09-03T15:49:08.245Z,2664.00
2018-09-03T15:50:08.098Z,2816.00
2018-09-03T15:51:07.988Z,2976.00
2018-09-03T15:52:07.994Z,3064.00
2018-09-03T15:53:08.261Z,3064.00
2018-09-03T15:54:08.210Z,2964.00
2018-09-03T15:55:07.958Z,2836.00
2018-09-03T15:56:08.047Z,2740.00
2018-09-03T15:57:08.004Z,2672.00
2018-09-03T15:58:07.887Z,2604.00
2018-09-03T15:59:07.883Z,2520.00
2018-09-03T16:00:07.867Z,2464.00
2018-09-03T16:01:07.760Z,2468.00
2018-09-03T16:02:07.857Z,2488.00
2018-09-03T16:03:07.908Z,2468.00
2018-09-03T16:04:07.819Z,2384.00
2018-09-03T16:05:07.715Z,2224.00
2018-09-03T16:06:07.717Z,1992.00
2018-09-03T16:07:07.621Z,1780.00
2018-09-03T16:08:07.691Z,1644.00
2018-09-03T16:09:07.657Z,1568.00
2018-09-03T16:10:07.617Z,1524.00
2018-09-03T16:11:07.736Z,1476.00
2018-09-03T16:12:07.638Z,1424.00
2018-09-03T16:13:07.488Z,1372.00
2018-09-03T16:14:07.592Z,1340.00
2018-09-03T16:15:07.467Z,1308.00
2018-09-03T16:16:07.472Z,1260.00
2018-09-03T16:17:07.400Z,1216.00
2018-09-03T16:18:07.504Z,1180.00
2018-09-03T16:19:07.353Z,1168.00
2018-09-03T16:20:07.426Z,1160.00
2018-09-03T16:21:07.434Z,1132.00
2018-09-03T16:22:07.347Z,1104.00
2018-09-03T16:23:07.277Z,1080.00
2018-09-03T16:24:07.238Z,1036.00
2018-09-03T16:25:07.332Z,984.00
2018-09-03T16:26:07.322Z,928.00
2018-09-03T16:27:07.159Z,864.00
2018-09-03T16:28:07.154Z,792.00
2018-09-03T16:29:07.213Z,732.00
2018-09-03T16:30:07.257Z,692.00
2018-09-03T16:31:07.207Z,672.00
2018-09-03T16:32:07.136Z,660.00
2018-09-03T16:33:07.139Z,656.00
2018-09-03T16:34:07.234Z,664.00
2018-09-03T16:35:07.118Z,692.00
2018-09-03T16:36:07.053Z,720.00
2018-09-03T16:37:07.043Z,736.00
2018-09-03T16:38:06.914Z,752.00
2018-09-03T16:39:06.976Z,780.00
2018-09-03T16:40:06.897Z,836.00
2018-09-03T16:41:06.922Z,868.00
2018-09-03T16:42:06.998Z,880.00
2018-09-03T16:43:06.806Z,860.00
2018-09-03T16:44:06.921Z,828.00
2018-09-03T16:45:06.757Z,808.00
2018-09-03T16:46:06.757Z,808.00
2018-09-03T16:47:06.695Z,844.00
2018-09-03T16:48:06.951Z,892.00
2018-09-03T16:49:06.705Z,956.00
2018-09-03T16:50:06.653Z,1020.00
2018-09-03T16:51:06.600Z,1032.00
2018-09-03T16:52:06.707Z,1004.00
2018-09-03T16:53:06.631Z,960.00
2018-09-03T16:54:06.606Z,936.00
2018-09-03T16:55:06.674Z,940.00
2018-09-03T16:56:06.566Z,980.00
2018-09-03T16:57:06.672Z,1048.00
2018-09-03T16:58:06.580Z,1132.00
2018-09-03T16:59:06.683Z,1216.00
2018-09-03T17:00:06.569Z,1300.00
2018-09-03T17:03:59.193Z,1464.00
2018-09-03T17:04:54.920Z,1436.00
2018-09-03T17:05:54.328Z,1412.00
2018-09-03T17:06:53.846Z,1388.00
2018-09-03T17:07:53.992Z,1340.00
2018-09-03T17:08:54.769Z,1276.00
2018-09-03T17:09:54.039Z,1224.00
2018-09-03T17:10:54.770Z,1152.00
2018-09-03T17:11:54.735Z,1064.00
2018-09-03T17:12:53.621Z,980.00
2018-09-03T17:13:55.811Z,912.00
2018-09-03T17:18:18.081Z,644.00
2018-09-03T17:19:16.570Z,600.00
2018-09-03T17:21:22.338Z,576.00
2018-09-03T17:24:27.912Z,584.00
2018-09-03T17:25:28.534Z,584.00
2018-09-03T17:26:49.402Z,592.00
2018-09-03T17:28:39.497Z,660.00
2018-09-03T17:30:53.065Z,700.00
2018-09-03T17:31:51.991Z,700.00
2018-09-03T17:33:50.044Z,656.00
2018-09-03T17:36:46.001Z,556.00
2018-09-03T17:37:45.355Z,524.00
2018-09-03T17:38:44.837Z,496.00
2018-09-03T17:39:45.188Z,468.00
2018-09-03T17:40:44.767Z,440.00
2018-09-03T17:41:45.829Z,420.00
2018-09-03T17:42:45.389Z,400.00
2018-09-03T17:43:45.853Z,388.00
2018-09-03T17:44:45.186Z,360.00
2018-09-03T17:45:45.444Z,340.00
2018-09-03T17:46:45.709Z,316.00
2018-09-03T17:47:45.729Z,300.00
2018-09-03T17:56:21.744Z,192.00
2018-09-03T17:59:25.765Z,152.00
2018-09-03T18:00:23.318Z,144.00
2018-09-03T18:01:26.857Z,136.00
2018-09-03T18:02:23.797Z,124.00
2018-09-03T18:03:23.157Z,116.00
2018-09-03T18:04:23.808Z,108.00
2018-09-03T18:05:23.761Z,100.00
2018-09-03T18:06:22.702Z,96.00
2018-09-03T18:07:22.597Z,92.00
2018-09-03T18:08:23.156Z,88.00
2018-09-03T18:09:23.613Z,88.00
2018-09-03T18:10:22.176Z,88.00
2018-09-03T18:11:23.053Z,84.00
2018-09-03T18:12:24.361Z,84.00
2018-09-03T18:13:22.998Z,84.00
2018-09-03T18:14:23.630Z,76.00
2018-09-03T18:15:23.542Z,72.00
2018-09-03T18:16:21.858Z,64.00
2018-09-03T18:17:47.056Z,56.00
2018-09-03T18:18:22.847Z,48.00
2018-09-03T18:19:22.692Z,40.00
2018-09-03T18:20:21.761Z,36.00
2018-09-03T18:21:21.613Z,28.00
2018-09-03T18:22:21.457Z,24.00
2018-09-03T18:23:21.332Z,24.00
2018-09-03T18:24:21.229Z,16.00
2018-09-03T18:25:21.324Z,16.00
2018-09-03T18:26:21.450Z,16.00
2018-09-03T18:27:21.238Z,12.00
2018-09-03T18:28:21.396Z,12.00
2018-09-03T18:29:21.438Z,8.00
2018-09-03T18:30:21.657Z,4.00
2018-09-03T18:31:21.082Z,8.00
2018-09-03T18:32:21.254Z,4.00
2018-09-03T18:33:21.603Z,4.00
2018-09-03T18:36:17.203Z,4.00
2018-09-03T18:37:18.584Z,4.00
2018-09-03T18:38:17.380Z,0.00
2018-09-03T18:39:20.158Z,0.00
2018-09-03T18:40:40.259Z,0.00
2018-09-03T18:41:18.680Z,4.00
2018-09-03T18:42:16.773Z,4.00
2018-09-03T18:43:16.167Z,0.00
2018-09-03T18:44:16.149Z,0.00
2018-09-03T18:45:16.148Z,0.00
2018-09-03T18:46:16.660Z,0.00
2018-09-03T18:47:16.650Z,0.00
2018-09-03T18:48:17.209Z,0.00
2018-09-03T18:49:17.031Z,0.00
2018-09-03T18:50:15.372Z,0.00
2018-09-03T18:51:15.019Z,0.00
2018-09-03T18:52:15.105Z,0.00
2018-09-03T18:53:15.087Z,0.00
2018-09-03T18:54:14.931Z,0.00
2018-09-03T18:55:14.960Z,0.00
2018-09-03T18:56:14.999Z,0.00
2018-09-03T18:57:15.633Z,0.00
2018-09-03T19:00:50.872Z,0.00
2018-09-03T19:03:01.776Z,0.00
2018-09-03T19:04:04.009Z,0.00
2018-09-03T19:05:58.200Z,0.00
2018-09-03T19:06:58.726Z,0.00
2018-09-03T19:08:56.846Z,0.00
2018-09-03T19:11:14.496Z,0.00
2018-09-03T19:12:12.722Z,0.00
2018-09-03T19:14:21.628Z,0.00
2018-09-03T19:15:12.376Z,0.00
2018-09-03T19:17:12.978Z,0.00
2018-09-03T19:18:13.408Z,0.00
2018-09-03T19:20:34.438Z,0.00
2018-09-03T19:21:26.987Z,0.00
2018-09-03T19:23:16.204Z,0.00
2018-09-03T19:27:43.220Z,0.00
2018-09-03T19:30:52.246Z,0.00
2018-09-03T19:33:53.670Z,0.00
2018-09-03T19:34:48.748Z,0.00
2018-09-03T19:35:48.911Z,0.00
2018-09-03T19:36:48.570Z,0.00
2018-09-03T19:37:49.034Z,0.00
2018-09-03T19:39:03.707Z,0.00
2018-09-03T19:40:50.896Z,0.00
2018-09-03T19:42:03.392Z,0.00
2018-09-03T19:43:50.442Z,0.00
2018-09-03T19:46:51.703Z,0.00
2018-09-03T19:49:14.262Z,0.00
2018-09-03T19:50:13.616Z,0.00
2018-09-03T19:51:13.315Z,0.00
2018-09-03T19:52:12.688Z,0.00
2018-09-03T19:53:13.468Z,0.00
2018-09-03T19:54:13.027Z,0.00
2018-09-03T19:55:13.152Z,0.00
2018-09-03T19:56:12.937Z,0.00
2018-09-03T19:57:14.142Z,0.00
2018-09-03T19:58:13.736Z,0.00
2018-09-03T20:01:35.518Z,0.00
2018-09-03T20:06:12.416Z,0.00
2018-09-03T20:06:50.647Z,0.00
2018-09-03T20:07:50.790Z,0.00
2018-09-03T20:08:50.979Z,0.00
2018-09-03T20:09:50.724Z,0.00
2018-09-03T20:10:51.227Z,0.00
2018-09-03T20:13:20.744Z,0.00
2018-09-03T20:15:36.057Z,0.00
2018-09-03T20:18:50.228Z,0.00
2018-09-03T20:19:40.759Z,0.00
2018-09-03T20:21:43.067Z,0.00
2018-09-03T20:22:42.196Z,0.00
2018-09-03T20:23:40.069Z,0.00
2018-09-03T20:24:40.339Z,0.00
2018-09-03T20:25:40.147Z,0.00
2018-09-03T20:26:40.171Z,0.00
2018-09-03T20:27:41.437Z,0.00
2018-09-03T20:28:40.189Z,0.00
2018-09-03T20:29:40.325Z,0.00
2018-09-03T20:30:40.285Z,0.00
2018-09-03T20:31:40.223Z,0.00
2018-09-03T20:32:41.350Z,0.00
2018-09-03T20:33:40.987Z,0.00
2018-09-03T20:34:39.877Z,0.00
2018-09-03T20:35:40.572Z,0.00